Terminal Aerodrome Forecast
Issued by NWS Paducah, KY

Home | Current Version | Previous Version | Text Only | Print | Product List | Glossary On
Versions: 1 2 3 4 5 6 7 8 9 10 11 12 13 14 15 16 17 18 19 20 21 22 23 24
000
FTUS43 KPAH 291734
TAFEVV
TAF
KEVV 291734Z 2918/3018 05007KT P6SM OVC150
     FM292200 07005KT P6SM SCT050 OVC100
      TEMPO 2922/2924 -SHRA
     FM300800 08007KT 6SM -SHRA BR SCT025 OVC050
     FM301200 10010KT 4SM -SHRA BR OVC020=

USA.gov is the U.S. government's official web portal to all federal, state and local government web resources and services.